Time;durP1;ratioP1;P1;durP2;ratioP2;P2;SDS_P1;SDS_P2;PMS_P1;PMS_P2;Temp;Humidity;BMP_temperature;BMP_pressure;BME280_temperature;BME280_humidity;BME280_pressure;Samples;Min_cycle;Max_cycle;Signal;HPM_P1;HPM_P2
2023/12/21 00:01:00;;;;;;;8.98;5.28;;;5.70;99.90;;;;;;6009156;23;20031;-72
2023/12/21 00:03:33;;;;;;;9.03;5.70;;;5.70;99.90;;;;;;5984940;23;20147;-72
2023/12/21 00:06:41;;;;;;;10.73;7.03;;;5.70;99.90;;;;;;6058161;23;20450;-73
2023/12/21 00:09:10;;;;;;;10.40;6.23;;;5.70;99.90;;;;;;6065725;23;20015;-72
2023/12/21 00:11:37;;;;;;;10.67;6.77;;;5.60;99.90;;;;;;6190110;23;20090;-72
2023/12/21 00:14:03;;;;;;;9.87;6.17;;;5.60;99.90;;;;;;6248796;22;20031;-71
2023/12/21 00:16:29;;;;;;;11.80;7.37;;;5.50;99.90;;;;;;6275334;22;20347;-72
2023/12/21 00:18:56;;;;;;;11.57;6.67;;;5.60;99.90;;;;;;6276565;22;20075;-72
2023/12/21 00:21:22;;;;;;;13.20;7.00;;;5.50;99.90;;;;;;6276760;22;20003;-72
2023/12/21 00:23:47;;;;;;;10.97;6.40;;;5.50;99.90;;;;;;6276774;22;20007;-73
2023/12/21 00:26:13;;;;;;;10.50;6.20;;;5.50;99.90;;;;;;6276777;22;20342;-72
2023/12/21 00:28:39;;;;;;;10.97;6.70;;;5.50;99.90;;;;;;6276425;22;20067;-70
2023/12/21 00:31:05;;;;;;;12.60;6.37;;;5.50;99.90;;;;;;6276613;22;20007;-70
2023/12/21 00:33:30;;;;;;;9.10;5.77;;;5.50;99.90;;;;;;6276137;22;20000;-70
2023/12/21 00:35:56;;;;;;;11.43;5.90;;;5.50;99.90;;;;;;6276102;22;20019;-73
2023/12/21 00:38:22;;;;;;;8.27;5.70;;;5.50;99.90;;;;;;6276323;22;19995;-72
2023/12/21 00:40:47;;;;;;;7.57;5.20;;;5.50;99.90;;;;;;6276672;22;20049;-72
2023/12/21 00:43:13;;;;;;;11.03;5.90;;;5.50;99.90;;;;;;6276159;22;19999;-73
2023/12/21 00:45:39;;;;;;;8.23;5.23;;;5.60;99.90;;;;;;6276783;22;20004;-72
2023/12/21 00:48:05;;;;;;;9.33;5.97;;;5.60;99.90;;;;;;6275997;22;20003;-72
2023/12/21 00:50:31;;;;;;;9.33;6.20;;;5.60;99.90;;;;;;6276320;22;20430;-71
2023/12/21 00:52:57;;;;;;;8.77;5.30;;;5.60;99.90;;;;;;6276695;22;20014;-72
2023/12/21 00:55:22;;;;;;;7.90;5.27;;;5.60;99.90;;;;;;6276172;22;20046;-71
2023/12/21 00:57:48;;;;;;;7.90;5.00;;;5.60;99.90;;;;;;6276512;22;19996;-72
2023/12/21 01:00:14;;;;;;;11.37;6.07;;;5.70;99.90;;;;;;6276118;22;20003;-72
2023/12/21 01:02:40;;;;;;;9.93;5.70;;;5.70;99.90;;;;;;6274517;22;20000;-72
2023/12/21 01:05:06;;;;;;;9.80;5.90;;;5.60;99.90;;;;;;6276308;22;20003;-73
2023/12/21 01:07:32;;;;;;;9.50;5.83;;;5.60;99.90;;;;;;6318255;22;20444;-72
2023/12/21 01:09:58;;;;;;;15.77;6.03;;;5.60;99.90;;;;;;6338431;22;19999;-71
2023/12/21 01:12:24;;;;;;;10.77;6.33;;;5.60;99.90;;;;;;6339206;22;20465;-72
2023/12/21 01:14:50;;;;;;;11.03;7.10;;;5.60;99.90;;;;;;6339125;22;20045;-72
2023/12/21 01:17:17;;;;;;;12.07;7.20;;;5.60;99.90;;;;;;6339048;22;20006;-72
2023/12/21 01:19:43;;;;;;;15.37;7.90;;;5.60;99.90;;;;;;6338902;22;20066;-72
2023/12/21 01:22:09;;;;;;;12.57;8.37;;;5.50;99.90;;;;;;6338989;22;20033;-72
2023/12/21 01:38:44;;;;;;;14.20;8.77;;;5.20;99.90;;;;;;6036720;23;20066;-73
2023/12/21 01:44:16;;;;;;;15.57;7.13;;;5.10;99.90;;;;;;6037125;23;20071;-72
2023/12/21 01:49:48;;;;;;;15.18;8.38;;;5.00;99.90;;;;;;6037867;23;20411;-71
2023/12/21 01:52:15;;;;;;;12.07;7.20;;;4.90;99.90;;;;;;6123564;23;20397;-72
2023/12/21 01:54:42;;;;;;;11.57;7.33;;;5.00;99.90;;;;;;6214270;22;20298;-72
2023/12/21 01:57:08;;;;;;;9.57;6.63;;;4.90;99.90;;;;;;6338413;22;20412;-73
2023/12/21 01:59:34;;;;;;;12.83;7.37;;;4.90;99.90;;;;;;6334604;22;20333;-72
2023/12/21 02:02:00;;;;;;;12.20;7.47;;;4.90;99.90;;;;;;6306869;22;20341;-72
2023/12/21 02:04:26;;;;;;;9.47;6.13;;;4.90;99.90;;;;;;6335694;22;20070;-72
2023/12/21 02:06:51;;;;;;;10.73;6.73;;;4.90;99.90;;;;;;6337262;22;20015;-72
2023/12/21 02:09:17;;;;;;;13.63;7.30;;;4.90;99.90;;;;;;6337650;22;19995;-72
2023/12/21 02:11:45;;;;;;;9.77;6.17;;;4.90;99.90;;;;;;6338246;22;20014;-72
2023/12/21 02:14:11;;;;;;;10.73;6.20;;;4.90;99.90;;;;;;6337701;22;20421;-72
2023/12/21 02:16:51;;;;;;;11.73;6.57;;;5.00;99.90;;;;;;6338237;22;20014;-72
2023/12/21 02:19:19;;;;;;;12.07;6.53;;;5.00;99.90;;;;;;6337665;22;20002;-72
2023/12/21 02:21:46;;;;;;;9.43;6.43;;;5.00;99.90;;;;;;6337448;22;20003;-72
2023/12/21 02:24:16;;;;;;;8.77;5.80;;;5.10;99.90;;;;;;6338153;22;20012;-72
2023/12/21 02:26:43;;;;;;;10.03;6.17;;;5.10;99.90;;;;;;6310324;22;20007;-72
2023/12/21 02:29:08;;;;;;;9.77;6.13;;;5.10;99.90;;;;;;6310076;22;20333;-72
2023/12/21 02:31:35;;;;;;;14.47;5.77;;;5.20;99.90;;;;;;6337584;22;20006;-72
2023/12/21 02:34:02;;;;;;;10.03;5.47;;;5.20;99.90;;;;;;6337212;22;19999;-70
2023/12/21 02:36:28;;;;;;;8.73;5.87;;;5.20;99.90;;;;;;6337317;22;20007;-70
2023/12/21 02:38:54;;;;;;;11.63;6.03;;;5.30;99.90;;;;;;6338012;22;19999;-70
2023/12/21 02:41:20;;;;;;;10.97;5.37;;;5.30;99.90;;;;;;6337834;22;19999;-70
2023/12/21 02:43:46;;;;;;;9.53;6.00;;;5.30;99.90;;;;;;6337580;22;20005;-70
2023/12/21 02:46:12;;;;;;;9.40;5.80;;;5.30;99.90;;;;;;6337761;22;20003;-71
2023/12/21 02:48:37;;;;;;;9.17;6.00;;;5.30;99.90;;;;;;6309856;22;19999;-70
2023/12/21 02:51:03;;;;;;;10.03;5.67;;;5.30;99.90;;;;;;6337387;22;20003;-70
2023/12/21 02:53:29;;;;;;;8.90;6.17;;;5.30;99.90;;;;;;6338014;22;19999;-70
2023/12/21 02:55:55;;;;;;;10.50;5.70;;;5.30;99.90;;;;;;6338011;22;20011;-72
2023/12/21 02:58:21;;;;;;;9.47;5.67;;;5.30;99.90;;;;;;6338533;22;20005;-72
2023/12/21 03:00:47;;;;;;;10.70;6.23;;;5.30;99.90;;;;;;6338483;22;20485;-72
2023/12/21 03:03:13;;;;;;;8.30;6.13;;;5.30;99.90;;;;;;6338493;22;20025;-70
2023/12/21 03:13:41;;;;;;;9.93;6.30;;;5.30;99.90;;;;;;6124740;23;20054;-72
2023/12/21 03:19:49;;;;;;;9.38;6.35;;;5.40;99.90;;;;;;6124977;23;20063;-72
2023/12/21 03:25:46;;;;;;;11.83;5.73;;;5.40;99.90;;;;;;6098131;23;20022;-72
2023/12/21 03:28:48;;;;;;;9.00;5.40;;;5.40;99.90;;;;;;6123897;23;20006;-72
2023/12/21 03:31:27;;;;;;;9.40;6.10;;;5.40;99.90;;;;;;6153686;23;20008;-72
2023/12/21 03:33:53;;;;;;;11.00;6.50;;;5.50;99.90;;;;;;6153812;23;20009;-72
2023/12/21 03:36:19;;;;;;;9.57;6.33;;;5.50;99.90;;;;;;6153757;23;20348;-72
2023/12/21 03:38:45;;;;;;;10.27;6.07;;;5.50;99.90;;;;;;6233580;22;20326;-72
2023/12/21 03:41:11;;;;;;;10.60;6.10;;;5.40;99.90;;;;;;6277158;22;20031;-73
2023/12/21 03:43:37;;;;;;;10.10;6.70;;;5.40;99.90;;;;;;6276951;22;20008;-72
2023/12/21 03:46:03;;;;;;;9.67;6.50;;;5.50;99.90;;;;;;6277030;22;20049;-71
2023/12/21 03:48:28;;;;;;;9.90;6.53;;;5.50;99.90;;;;;;6276982;22;20045;-70
2023/12/21 03:50:54;;;;;;;10.00;6.93;;;5.50;99.90;;;;;;6277267;22;20511;-72
2023/12/21 03:53:20;;;;;;;9.40;7.03;;;5.50;99.90;;;;;;6277260;22;20004;-70
2023/12/21 03:55:46;;;;;;;8.90;6.70;;;5.50;99.90;;;;;;6277010;22;20043;-70
2023/12/21 03:58:11;;;;;;;10.60;7.43;;;5.50;99.90;;;;;;6276625;22;20000;-70
2023/12/21 04:00:37;;;;;;;11.17;7.63;;;5.50;99.90;;;;;;6275350;22;20004;-72
2023/12/21 04:03:03;;;;;;;11.20;7.33;;;5.50;99.90;;;;;;6276739;22;20004;-70
2023/12/21 04:05:29;;;;;;;10.70;7.40;;;5.50;99.90;;;;;;6276740;22;20444;-70
2023/12/21 04:07:55;;;;;;;10.40;7.60;;;5.50;99.90;;;;;;6328094;22;20011;-70
2023/12/21 04:10:21;;;;;;;14.90;8.80;;;5.50;99.90;;;;;;6338421;22;20003;-70
2023/12/21 04:12:47;;;;;;;10.80;7.53;;;5.60;99.90;;;;;;6338929;22;20048;-70
2023/12/21 04:15:12;;;;;;;12.20;7.97;;;5.60;99.90;;;;;;6339087;22;20093;-70
2023/12/21 04:17:38;;;;;;;11.27;7.27;;;5.60;99.90;;;;;;6338775;22;19999;-70
2023/12/21 04:20:05;;;;;;;11.80;7.73;;;5.60;99.90;;;;;;6339127;22;20007;-72
2023/12/21 04:22:31;;;;;;;13.13;8.07;;;5.60;99.90;;;;;;6338872;22;20005;-72
2023/12/21 04:24:56;;;;;;;11.30;7.57;;;5.60;99.90;;;;;;6338781;22;20030;-72
2023/12/21 04:27:23;;;;;;;10.93;7.93;;;5.60;99.90;;;;;;6338900;22;20052;-72
2023/12/21 04:29:49;;;;;;;9.10;7.13;;;5.60;99.90;;;;;;6338814;22;20034;-72
2023/12/21 04:32:14;;;;;;;10.73;7.73;;;5.60;99.90;;;;;;6338892;22;19995;-72
2023/12/21 04:34:40;;;;;;;12.90;8.33;;;5.70;99.90;;;;;;6339311;22;20010;-72
2023/12/21 04:37:06;;;;;;;13.50;8.20;;;5.70;99.90;;;;;;6339759;22;20510;-72
2023/12/21 04:39:32;;;;;;;12.53;7.60;;;5.70;99.90;;;;;;6339785;22;19999;-72
2023/12/21 04:41:58;;;;;;;11.33;7.73;;;5.70;99.90;;;;;;6339237;22;20444;-72
2023/12/21 04:44:27;;;;;;;11.97;7.67;;;5.80;99.90;;;;;;6339436;22;20007;-72
2023/12/21 04:47:03;;;;;;;12.10;8.23;;;5.80;99.90;;;;;;6339627;22;20332;-73
2023/12/21 04:50:08;;;;;;;13.47;9.90;;;5.80;99.90;;;;;;6339044;22;20010;-73
2023/12/21 04:56:09;;;;;;;13.33;10.37;;;5.80;99.90;;;;;;6166402;23;20044;-72
2023/12/21 05:08:42;;;;;;;13.83;8.40;;;5.80;99.90;;;;;;6071853;23;20105;-72
2023/12/21 05:14:18;;;;;;;14.53;9.23;;;5.70;99.90;;;;;;6242731;23;20008;-72
2023/12/21 05:16:44;;;;;;;12.73;9.17;;;5.60;99.90;;;;;;6325445;22;20007;-72
2023/12/21 05:19:10;;;;;;;13.53;9.27;;;5.60;99.90;;;;;;6338391;22;20332;-72
2023/12/21 05:21:36;;;;;;;13.03;8.50;;;5.60;99.90;;;;;;6311082;22;20093;-73
2023/12/21 05:24:02;;;;;;;13.20;8.87;;;5.50;99.90;;;;;;6338509;22;20100;-73
2023/12/21 05:26:28;;;;;;;13.33;8.67;;;5.50;99.90;;;;;;6310744;22;20060;-71
2023/12/21 05:28:57;;;;;;;13.43;9.00;;;5.50;99.90;;;;;;6338560;22;20030;-72
2023/12/21 05:31:24;;;;;;;11.83;8.60;;;5.50;99.90;;;;;;6338116;22;20059;-72
2023/12/21 05:33:50;;;;;;;12.83;8.43;;;5.40;99.90;;;;;;6310525;22;20354;-72
2023/12/21 05:36:24;;;;;;;17.40;8.90;;;5.40;99.90;;;;;;6337768;22;20345;-72
2023/12/21 05:38:51;;;;;;;13.37;8.40;;;5.40;99.90;;;;;;6337972;22;19999;-71
2023/12/21 05:41:17;;;;;;;11.37;7.80;;;5.40;99.90;;;;;;6338419;22;20010;-72
2023/12/21 05:43:43;;;;;;;10.77;7.73;;;5.30;99.90;;;;;;6338628;22;19998;-70
2023/12/21 05:46:09;;;;;;;13.70;7.37;;;5.30;99.90;;;;;;6338091;22;19994;-70
2023/12/21 05:48:36;;;;;;;10.27;7.60;;;5.30;99.90;;;;;;6337570;22;20452;-70
2023/12/21 05:51:02;;;;;;;12.10;8.60;;;5.30;99.90;;;;;;6338031;22;20413;-69
2023/12/21 05:53:30;;;;;;;11.17;7.73;;;5.30;99.90;;;;;;6338451;22;20034;-70
2023/12/21 05:55:56;;;;;;;10.70;7.30;;;5.30;99.90;;;;;;6338109;22;20037;-70
2023/12/21 05:58:22;;;;;;;10.43;7.23;;;5.30;99.90;;;;;;6336912;22;20051;-69
2023/12/21 06:00:48;;;;;;;11.60;7.33;;;5.30;99.90;;;;;;6337548;22;20010;-70
2023/12/21 06:03:14;;;;;;;11.87;7.43;;;5.30;99.90;;;;;;6337804;22;20019;-70
2023/12/21 06:05:40;;;;;;;12.00;8.70;;;5.30;99.90;;;;;;6337697;22;20069;-70
2023/12/21 06:08:06;;;;;;;15.80;7.47;;;5.30;99.90;;;;;;6337797;22;20537;-70
2023/12/21 06:10:33;;;;;;;15.60;7.23;;;5.30;99.90;;;;;;6309547;22;20010;-70
2023/12/21 06:12:59;;;;;;;12.43;7.53;;;5.30;99.90;;;;;;6337811;22;20010;-70
2023/12/21 06:15:25;;;;;;;12.90;6.77;;;5.30;99.90;;;;;;6338088;22;20017;-70
2023/12/21 06:17:51;;;;;;;11.27;7.73;;;5.30;99.90;;;;;;6338393;22;20439;-70
2023/12/21 06:20:17;;;;;;;13.20;7.73;;;5.30;99.90;;;;;;6339050;22;20042;-70
2023/12/21 06:22:43;;;;;;;11.07;6.97;;;5.30;99.90;;;;;;6339130;22;19995;-70
2023/12/21 06:25:09;;;;;;;11.80;8.40;;;5.30;99.90;;;;;;6339125;22;20003;-70
2023/12/21 06:27:37;;;;;;;11.60;7.80;;;5.30;99.90;;;;;;6339009;22;20070;-70
2023/12/21 06:30:56;;;;;;;11.70;8.27;;;5.30;99.90;;;;;;6338761;22;19998;-70
2023/12/21 06:44:16;;;;;;;11.05;7.85;;;5.40;99.90;;;;;;6093229;23;20058;-70
2023/12/21 06:47:36;;;;;;;17.97;10.63;;;5.40;99.90;;;;;;6036783;23;20413;-70
2023/12/21 06:51:37;;;;;;;19.40;12.00;;;5.40;99.90;;;;;;6037782;23;20338;-70
2023/12/21 07:00:55;;;;;;;27.33;11.07;;;5.20;99.90;;;;;;5817711;24;20018;-70
2023/12/21 07:03:24;;;;;;;16.80;11.10;;;5.10;99.90;;;;;;5939181;23;20337;-70
2023/12/21 07:05:50;;;;;;;17.23;10.20;;;5.10;99.90;;;;;;6066265;23;20334;-69
2023/12/21 07:08:19;;;;;;;18.93;10.53;;;5.00;99.90;;;;;;6273083;22;20015;-70
2023/12/21 07:10:45;;;;;;;19.43;11.37;;;5.00;99.90;;;;;;6339255;22;20012;-70
2023/12/21 07:13:11;;;;;;;16.93;10.30;;;4.90;99.90;;;;;;6339453;22;20041;-70
2023/12/21 07:15:37;;;;;;;14.73;10.17;;;4.90;99.90;;;;;;6339364;22;20060;-70
2023/12/21 07:18:04;;;;;;;22.57;11.20;;;4.80;99.90;;;;;;6339455;22;20298;-70
2023/12/21 07:20:30;;;;;;;16.43;10.83;;;4.80;99.90;;;;;;6339283;22;19999;-70
2023/12/21 07:22:56;;;;;;;18.00;10.53;;;4.80;99.90;;;;;;6339565;22;20008;-70
2023/12/21 07:25:23;;;;;;;19.23;10.37;;;4.80;99.90;;;;;;6339542;22;19999;-70
2023/12/21 07:27:49;;;;;;;14.70;9.97;;;4.80;99.90;;;;;;6339379;22;20453;-70
2023/12/21 07:30:16;;;;;;;15.67;9.87;;;4.90;99.90;;;;;;6339229;22;20007;-70
2023/12/21 07:32:42;;;;;;;28.00;11.87;;;4.90;99.90;;;;;;6339713;22;20006;-70
2023/12/21 07:35:08;;;;;;;16.70;10.47;;;5.00;99.90;;;;;;6339706;22;20091;-70
2023/12/21 07:37:34;;;;;;;23.03;12.70;;;5.00;99.90;;;;;;6339396;22;20444;-70
2023/12/21 07:40:00;;;;;;;25.13;12.13;;;5.00;99.90;;;;;;6338521;22;20007;-68
2023/12/21 07:42:27;;;;;;;21.00;12.50;;;5.00;99.90;;;;;;6311922;22;19999;-69
2023/12/21 07:44:53;;;;;;;19.57;12.17;;;5.00;99.90;;;;;;6339579;22;20056;-69
2023/12/21 07:47:19;;;;;;;19.93;12.50;;;5.10;99.90;;;;;;6339695;22;20007;-69
2023/12/21 07:49:45;;;;;;;23.27;13.17;;;5.10;99.90;;;;;;6338812;22;19999;-69
2023/12/21 07:52:10;;;;;;;24.47;13.83;;;5.20;99.90;;;;;;6339190;22;20006;-69
2023/12/21 07:54:36;;;;;;;21.13;11.73;;;5.20;99.90;;;;;;6339152;22;20005;-69
2023/12/21 07:57:02;;;;;;;17.40;10.93;;;5.30;99.90;;;;;;6339071;22;20007;-68
2023/12/21 07:59:28;;;;;;;13.93;9.30;;;5.30;99.90;;;;;;6338754;22;20006;-69
2023/12/21 08:01:55;;;;;;;26.17;9.40;;;5.40;99.90;;;;;;6339510;22;19999;-70
2023/12/21 08:04:20;;;;;;;18.17;9.70;;;5.50;99.90;;;;;;6312615;22;19995;-70
2023/12/21 08:06:46;;;;;;;16.00;9.63;;;5.50;99.90;;;;;;6339669;22;20010;-70
2023/12/21 08:09:12;;;;;;;13.47;8.27;;;5.60;99.90;;;;;;6339572;22;20041;-70
2023/12/21 08:11:38;;;;;;;13.33;8.00;;;5.70;99.90;;;;;;6339521;22;20086;-71
2023/12/21 08:14:37;;;;;;;13.27;8.63;;;5.70;99.90;;;;;;6336626;22;20028;-71
2023/12/21 08:35:35;;;;;;;20.37;10.10;;;6.20;99.90;;;;;;5955836;24;20086;-71
2023/12/21 08:38:42;;;;;;;16.53;9.37;;;6.20;99.90;;;;;;5918538;24;20447;-71
2023/12/21 08:41:08;;;;;;;14.30;8.63;;;6.20;99.90;;;;;;5823571;24;20083;-71
2023/12/21 08:43:36;;;;;;;11.80;8.73;;;6.30;99.90;;;;;;5911459;23;20347;-70
2023/12/21 08:46:03;;;;;;;43.90;17.37;;;6.30;99.90;;;;;;6145530;22;20346;-70
2023/12/21 08:48:29;;;;;;;60.53;25.83;;;6.40;99.90;;;;;;6329453;22;20124;-70
2023/12/21 08:50:55;;;;;;;48.10;22.63;;;6.40;99.90;;;;;;6338695;22;20026;-70
2023/12/21 08:53:21;;;;;;;38.03;18.13;;;6.50;99.90;;;;;;6338509;22;20080;-70
2023/12/21 08:55:47;;;;;;;24.73;13.90;;;6.50;99.90;;;;;;6338988;22;20056;-70
2023/12/21 08:58:13;;;;;;;21.23;13.80;;;6.60;99.90;;;;;;6338613;22;19999;-70
2023/12/21 09:00:39;;;;;;;20.30;12.77;;;6.60;99.90;;;;;;6338475;22;20037;-70
2023/12/21 09:03:05;;;;;;;17.47;11.50;;;6.60;99.90;;;;;;6338640;22;20057;-70
2023/12/21 09:05:30;;;;;;;16.67;11.60;;;6.70;99.90;;;;;;6338369;22;20002;-70
2023/12/21 09:07:56;;;;;;;17.67;10.97;;;6.70;99.90;;;;;;6338158;22;20021;-71
2023/12/21 09:10:22;;;;;;;18.00;11.13;;;6.70;99.90;;;;;;6338120;22;20077;-70
2023/12/21 09:12:48;;;;;;;19.07;11.77;;;6.70;99.90;;;;;;6338248;22;19995;-70
2023/12/21 09:15:13;;;;;;;17.97;11.90;;;6.70;99.90;;;;;;6338549;22;20010;-70
2023/12/21 09:17:40;;;;;;;18.57;11.47;;;6.70;99.90;;;;;;6338523;22;20081;-70
2023/12/21 09:20:08;;;;;;;19.27;12.03;;;6.70;99.80;;;;;;6338544;22;20002;-70
2023/12/21 09:22:34;;;;;;;18.87;11.23;;;6.70;99.80;;;;;;6338648;22;20078;-70
2023/12/21 09:25:02;;;;;;;18.47;11.13;;;6.70;99.80;;;;;;6338785;22;20084;-70
2023/12/21 09:27:28;;;;;;;18.90;11.30;;;6.70;99.90;;;;;;6338431;22;20359;-71
2023/12/21 09:29:54;;;;;;;19.73;11.80;;;6.70;99.90;;;;;;6310542;22;20329;-70
2023/12/21 09:32:20;;;;;;;20.83;12.73;;;6.70;99.90;;;;;;6310888;22;20003;-69
2023/12/21 09:34:49;;;;;;;27.23;12.57;;;6.70;99.90;;;;;;6338303;22;20014;-69
2023/12/21 09:37:16;;;;;;;20.27;12.53;;;6.70;99.90;;;;;;6338340;22;20081;-69
2023/12/21 09:39:42;;;;;;;27.70;13.20;;;6.70;99.90;;;;;;6338626;22;20002;-69
2023/12/21 09:42:14;;;;;;;24.73;12.77;;;6.70;99.90;;;;;;6338276;22;20325;-71
2023/12/21 09:44:42;;;;;;;27.20;13.77;;;6.80;99.90;;;;;;6339098;22;20013;-71
2023/12/21 09:47:11;;;;;;;27.77;12.60;;;6.90;99.90;;;;;;6339017;22;20314;-71
2023/12/21 09:49:41;;;;;;;23.63;11.77;;;6.90;99.90;;;;;;6339083;22;20009;-71
2023/12/21 09:56:30;;;;;;;;;;;;;;;;;;;;;
2023/12/21 10:03:16;;;;;;;19.77;10.37;;;7.30;99.60;;;;;;6094660;23;20078;-72
2023/12/21 10:12:58;;;;;;;14.17;8.73;;;7.60;99.00;;;;;;5926605;24;20083;-73
2023/12/21 10:19:08;;;;;;;16.50;10.60;;;7.80;98.70;;;;;;5980679;23;20114;-71
2023/12/21 10:21:34;;;;;;;16.63;9.93;;;7.80;98.50;;;;;;6177737;22;20362;-71
2023/12/21 10:24:00;;;;;;;12.60;8.93;;;7.80;98.50;;;;;;6339717;22;20329;-71
2023/12/21 10:26:26;;;;;;;12.77;8.57;;;7.90;98.50;;;;;;6340028;22;20299;-71
2023/12/21 10:28:54;;;;;;;17.03;9.57;;;7.90;98.40;;;;;;6339809;22;20081;-71
2023/12/21 10:31:21;;;;;;;16.17;9.87;;;7.90;98.40;;;;;;6312143;22;20413;-70
2023/12/21 10:33:47;;;;;;;14.37;9.97;;;8.00;98.20;;;;;;6339683;22;20002;-71
2023/12/21 10:36:13;;;;;;;14.43;9.57;;;8.00;98.10;;;;;;6312057;22;20068;-71
2023/12/21 10:38:44;;;;;;;13.80;9.20;;;8.10;98.10;;;;;;6311947;22;20060;-70
2023/12/21 10:41:10;;;;;;;18.20;9.80;;;8.10;98.00;;;;;;6339186;22;20003;-70
2023/12/21 10:43:36;;;;;;;24.00;9.87;;;8.10;97.90;;;;;;6339399;22;20429;-71
2023/12/21 10:46:03;;;;;;;20.53;9.43;;;8.20;98.00;;;;;;6339462;22;19999;-70
2023/12/21 10:48:33;;;;;;;13.77;9.03;;;8.20;97.90;;;;;;6340049;22;20314;-71
2023/12/21 10:51:00;;;;;;;21.33;9.43;;;8.30;97.80;;;;;;6339855;22;20026;-70
2023/12/21 10:53:27;;;;;;;20.13;10.40;;;8.30;97.70;;;;;;6339655;22;20056;-71
2023/12/21 10:55:54;;;;;;;13.83;9.20;;;8.30;97.80;;;;;;6339185;22;20013;-70
2023/12/21 10:58:22;;;;;;;18.23;10.17;;;8.40;97.90;;;;;;6339730;22;20090;-71
2023/12/21 11:00:50;;;;;;;15.17;9.20;;;8.40;97.80;;;;;;6312118;22;20090;-67
2023/12/21 11:03:19;;;;;;;11.57;8.40;;;8.40;97.80;;;;;;6312076;22;20014;-68
2023/12/21 11:05:45;;;;;;;14.80;9.23;;;8.50;97.60;;;;;;6339780;22;20006;-67
2023/12/21 11:08:11;;;;;;;11.23;8.53;;;8.50;97.60;;;;;;6339306;22;20011;-68
2023/12/21 11:10:37;;;;;;;11.23;8.80;;;8.60;97.60;;;;;;6339433;22;20059;-68
2023/12/21 11:13:03;;;;;;;12.63;8.87;;;8.50;97.40;;;;;;6339232;22;19999;-67
2023/12/21 11:15:32;;;;;;;17.53;9.00;;;8.60;97.30;;;;;;6338849;22;20018;-68
2023/12/21 11:18:04;;;;;;;14.97;8.97;;;8.60;97.30;;;;;;6312023;22;20366;-70
2023/12/21 11:20:34;;;;;;;14.73;9.27;;;8.60;97.20;;;;;;6340259;22;20345;-71
2023/12/21 11:23:06;;;;;;;15.93;8.80;;;8.70;96.90;;;;;;6340267;22;20002;-71
2023/12/21 11:25:33;;;;;;;11.10;8.73;;;8.70;96.70;;;;;;6339372;22;20002;-71
2023/12/21 11:28:02;;;;;;;15.60;8.60;;;8.80;96.80;;;;;;6312304;22;19999;-71
2023/12/21 11:30:43;;;;;;;10.80;7.00;;;8.80;96.90;;;;;;6339940;22;20014;-71
2023/12/21 11:41:02;;;;;;;14.50;7.20;;;8.90;95.50;;;;;;6184314;23;20534;-70
2023/12/21 11:50:30;;;;;;;12.53;8.47;;;9.00;95.20;;;;;;6124982;23;20029;-71
2023/12/21 11:56:33;;;;;;;15.40;9.13;;;9.00;95.40;;;;;;6123986;23;20527;-71
2023/12/21 11:59:00;;;;;;;14.67;9.50;;;9.10;95.60;;;;;;6183648;23;20391;-72
2023/12/21 12:01:27;;;;;;;15.63;8.63;;;9.10;95.70;;;;;;6242594;23;20067;-71
2023/12/21 12:03:53;;;;;;;16.43;8.70;;;9.10;95.90;;;;;;6320132;22;20084;-70
2023/12/21 12:06:21;;;;;;;20.43;10.27;;;9.10;96.00;;;;;;6338832;22;20520;-73
2023/12/21 12:08:47;;;;;;;12.10;9.20;;;9.10;96.00;;;;;;6338791;22;20011;-75
2023/12/21 12:11:13;;;;;;;14.73;9.53;;;9.10;95.90;;;;;;6338333;22;20009;-73
2023/12/21 12:13:39;;;;;;;13.50;9.57;;;9.10;95.90;;;;;;6339091;22;20072;-75
2023/12/21 12:16:07;;;;;;;17.57;9.53;;;9.10;95.70;;;;;;6338941;22;20010;-70
2023/12/21 12:18:32;;;;;;;14.53;9.07;;;9.10;95.60;;;;;;6339272;22;20076;-77
2023/12/21 12:21:00;;;;;;;14.60;9.70;;;9.10;95.80;;;;;;6338839;22;19998;-76
2023/12/21 12:23:27;;;;;;;19.77;10.47;;;9.10;96.80;;;;;;6339019;22;20310;-70
2023/12/21 12:25:52;;;;;;;14.63;9.23;;;9.10;97.20;;;;;;6338623;22;20011;-70
2023/12/21 12:28:21;;;;;;;16.67;9.97;;;9.10;98.20;;;;;;6338777;22;20078;-70
2023/12/21 12:30:50;;;;;;;20.43;13.00;;;9.10;98.10;;;;;;6339796;22;20014;-69
2023/12/21 12:33:16;;;;;;;18.73;10.93;;;9.10;98.10;;;;;;6339033;22;20026;-70
2023/12/21 12:35:43;;;;;;;14.90;9.97;;;9.10;98.30;;;;;;6338654;22;20007;-70
2023/12/21 12:38:09;;;;;;;15.20;10.20;;;9.10;98.30;;;;;;6338700;22;19995;-70
2023/12/21 12:40:35;;;;;;;16.13;10.27;;;9.00;98.50;;;;;;6339195;22;20010;-71
2023/12/21 12:43:01;;;;;;;14.47;9.37;;;9.10;98.40;;;;;;6338751;22;20025;-70
2023/12/21 12:45:29;;;;;;;17.03;9.17;;;9.00;98.70;;;;;;6337955;22;20028;-70
2023/12/21 12:47:55;;;;;;;18.70;8.80;;;9.00;99.00;;;;;;6339406;22;20093;-70
2023/12/21 12:50:23;;;;;;;17.23;9.97;;;9.10;99.10;;;;;;6338492;22;20048;-70
2023/12/21 12:52:49;;;;;;;19.03;10.37;;;9.00;99.60;;;;;;6338517;22;20120;-70
2023/12/21 12:55:15;;;;;;;14.90;9.90;;;9.00;99.40;;;;;;6338210;22;20005;-69
2023/12/21 12:57:48;;;;;;;15.67;9.37;;;9.10;99.30;;;;;;6338363;22;20052;-70
2023/12/21 13:00:21;;;;;;;14.60;9.83;;;9.00;99.20;;;;;;6339289;22;20025;-70
2023/12/21 13:02:47;;;;;;;15.80;9.35;;;9.00;99.40;;;;;;6339222;22;20044;-70
2023/12/21 13:05:17;;;;;;;23.90;12.80;;;9.00;99.50;;;;;;6335184;22;20010;-70
2023/12/21 13:08:23;;;;;;;29.27;16.80;;;9.00;99.50;;;;;;6335673;22;20018;-70
2023/12/21 13:28:13;;;;;;;40.07;17.70;;;9.00;99.90;;;;;;6062616;23;20142;-71
2023/12/21 13:30:59;;;;;;;26.07;16.97;;;9.00;99.90;;;;;;6065186;23;20383;-71
2023/12/21 13:33:35;;;;;;;25.47;14.97;;;9.00;99.90;;;;;;6064892;23;20084;-70
2023/12/21 13:36:01;;;;;;;22.80;14.37;;;9.00;99.90;;;;;;6064958;23;20371;-69
2023/12/21 13:38:27;;;;;;;23.87;14.23;;;9.00;99.90;;;;;;6231880;22;20007;-68
2023/12/21 13:40:53;;;;;;;21.53;14.10;;;9.00;99.90;;;;;;6338077;22;20001;-69
2023/12/21 13:43:19;;;;;;;23.13;14.77;;;9.00;99.90;;;;;;6338629;22;19998;-69
2023/12/21 13:45:45;;;;;;;21.53;14.70;;;9.00;99.90;;;;;;6338462;22;20010;-69
2023/12/21 13:48:11;;;;;;;24.63;16.27;;;9.00;99.80;;;;;;6338225;22;20022;-69
2023/12/21 13:50:37;;;;;;;24.73;14.77;;;9.00;99.60;;;;;;6310276;22;20390;-69
2023/12/21 13:53:03;;;;;;;23.63;15.63;;;9.00;99.90;;;;;;6338135;22;20010;-69
2023/12/21 13:55:30;;;;;;;30.07;16.23;;;9.00;99.70;;;;;;6338150;22;20014;-69
2023/12/21 13:57:56;;;;;;;22.23;16.30;;;9.00;99.70;;;;;;6337728;22;19999;-70
2023/12/21 14:00:22;;;;;;;25.83;15.87;;;9.00;99.80;;;;;;6309075;22;20010;-69
2023/12/21 14:02:49;;;;;;;24.63;17.07;;;9.00;99.80;;;;;;6336207;22;20006;-69
2023/12/21 14:05:45;;;;;;;22.17;14.80;;;9.00;99.90;;;;;;6319004;22;20347;-69
2023/12/21 14:29:18;;;;;;;17.07;9.33;;;8.90;99.20;;;;;;6273099;22;20014;-71
2023/12/21 14:31:44;;;;;;;19.20;11.00;;;8.90;99.20;;;;;;6261412;22;20057;-71
2023/12/21 14:34:10;;;;;;;18.60;12.00;;;8.80;99.20;;;;;;6273406;22;20000;-71
2023/12/21 14:36:36;;;;;;;22.40;12.03;;;8.80;99.20;;;;;;6326789;22;20014;-71
2023/12/21 14:39:04;;;;;;;21.40;13.43;;;8.80;99.30;;;;;;6369826;22;19994;-71
2023/12/21 14:41:30;;;;;;;27.70;16.47;;;8.80;99.30;;;;;;6369582;22;20002;-72
2023/12/21 14:43:56;;;;;;;21.10;13.53;;;8.80;99.30;;;;;;6369819;22;20421;-72
2023/12/21 14:46:22;;;;;;;21.87;13.23;;;8.80;99.20;;;;;;6369941;22;20002;-69
2023/12/21 14:48:48;;;;;;;27.33;20.63;;;8.80;99.30;;;;;;6370192;22;20002;-72
2023/12/21 14:51:16;;;;;;;25.17;16.17;;;8.80;99.30;;;;;;6369268;22;19999;-72
2023/12/21 14:53:42;;;;;;;36.70;20.47;;;8.80;99.40;;;;;;6369618;22;20003;-71
2023/12/21 14:56:08;;;;;;;35.20;15.80;;;8.70;99.40;;;;;;6369379;22;20033;-71
2023/12/21 14:58:35;;;;;;;26.80;16.13;;;8.70;99.50;;;;;;6369712;22;20400;-68
2023/12/21 15:01:01;;;;;;;32.33;20.87;;;8.70;99.60;;;;;;6369379;22;20428;-69
2023/12/21 15:03:28;;;;;;;27.27;17.90;;;8.70;99.80;;;;;;6367559;22;19995;-71
2023/12/21 15:05:55;;;;;;;28.67;18.17;;;8.70;99.90;;;;;;6368149;22;20467;-71
2023/12/21 15:08:21;;;;;;;23.00;16.70;;;8.70;99.90;;;;;;6369226;22;20432;-71
2023/12/21 15:10:47;;;;;;;20.27;13.40;;;8.70;99.90;;;;;;6370294;22;20002;-71
2023/12/21 15:13:12;;;;;;;15.50;11.30;;;8.70;99.90;;;;;;6370141;22;20001;-70
2023/12/21 15:15:38;;;;;;;21.67;12.50;;;8.70;99.90;;;;;;6370598;22;20055;-69
2023/12/21 15:18:04;;;;;;;19.37;11.97;;;8.60;99.90;;;;;;6371396;22;20021;-69
2023/12/21 15:20:30;;;;;;;21.83;13.30;;;8.60;99.90;;;;;;6371231;22;20005;-69
2023/12/21 15:22:56;;;;;;;20.23;12.33;;;8.60;99.90;;;;;;6371258;22;20006;-68
2023/12/21 15:25:22;;;;;;;19.03;13.17;;;8.60;99.90;;;;;;6371437;22;20055;-69
2023/12/21 15:27:48;;;;;;;32.90;13.87;;;8.60;99.90;;;;;;6371015;22;19994;-68
2023/12/21 15:30:14;;;;;;;26.20;15.33;;;8.60;99.90;;;;;;6370939;22;20081;-68
2023/12/21 15:32:40;;;;;;;32.03;21.50;;;8.60;99.90;;;;;;6371137;22;20381;-69
2023/12/21 15:35:09;;;;;;;37.57;21.70;;;8.60;99.90;;;;;;6369886;22;20415;-68